sensor_id;sensor_type;location;lat;lon;timestamp;P1;durP1;ratioP1;P2;durP2;ratioP2
47523;SDS011;33253;42.144;25.884;2023-08-21T00:00:42;17.27;;;8.02;;
47523;SDS011;33253;42.144;25.884;2023-08-21T00:03:07;14.20;;;9.02;;
47523;SDS011;33253;42.144;25.884;2023-08-21T00:05:33;17.25;;;8.50;;
47523;SDS011;33253;42.144;25.884;2023-08-21T00:07:58;14.15;;;8.88;;
47523;SDS011;33253;42.144;25.884;2023-08-21T00:10:24;15.68;;;8.43;;
47523;SDS011;33253;42.144;25.884;2023-08-21T00:12:49;17.38;;;8.82;;
47523;SDS011;33253;42.144;25.884;2023-08-21T00:15:15;16.92;;;8.50;;
47523;SDS011;33253;42.144;25.884;2023-08-21T00:17:40;15.35;;;9.27;;
47523;SDS011;33253;42.144;25.884;2023-08-21T00:20:06;12.00;;;7.65;;
47523;SDS011;33253;42.144;25.884;2023-08-21T00:22:34;11.73;;;8.38;;
47523;SDS011;33253;42.144;25.884;2023-08-21T00:25:00;13.82;;;8.75;;
47523;SDS011;33253;42.144;25.884;2023-08-21T00:27:26;11.68;;;8.18;;
47523;SDS011;33253;42.144;25.884;2023-08-21T00:29:51;14.05;;;7.95;;
47523;SDS011;33253;42.144;25.884;2023-08-21T00:32:17;13.38;;;8.52;;
47523;SDS011;33253;42.144;25.884;2023-08-21T00:34:42;11.40;;;7.72;;
47523;SDS011;33253;42.144;25.884;2023-08-21T00:37:07;15.13;;;7.82;;
47523;SDS011;33253;42.144;25.884;2023-08-21T00:39:33;13.48;;;8.10;;
47523;SDS011;33253;42.144;25.884;2023-08-21T00:41:59;17.65;;;7.35;;
47523;SDS011;33253;42.144;25.884;2023-08-21T00:44:25;12.43;;;7.85;;
47523;SDS011;33253;42.144;25.884;2023-08-21T00:46:50;21.35;;;8.00;;
47523;SDS011;33253;42.144;25.884;2023-08-21T00:49:16;15.35;;;7.22;;
47523;SDS011;33253;42.144;25.884;2023-08-21T00:51:41;19.92;;;7.75;;
47523;SDS011;33253;42.144;25.884;2023-08-21T00:54:07;13.60;;;7.20;;
47523;SDS011;33253;42.144;25.884;2023-08-21T00:56:32;12.15;;;7.13;;
47523;SDS011;33253;42.144;25.884;2023-08-21T00:58:58;13.25;;;7.55;;
47523;SDS011;33253;42.144;25.884;2023-08-21T01:01:24;12.65;;;7.60;;
47523;SDS011;33253;42.144;25.884;2023-08-21T01:03:50;12.70;;;7.00;;
47523;SDS011;33253;42.144;25.884;2023-08-21T01:06:16;12.32;;;6.82;;
47523;SDS011;33253;42.144;25.884;2023-08-21T01:08:49;9.75;;;6.90;;
47523;SDS011;33253;42.144;25.884;2023-08-21T01:13:54;12.88;;;5.82;;
47523;SDS011;33253;42.144;25.884;2023-08-21T01:16:28;10.52;;;6.30;;
47523;SDS011;33253;42.144;25.884;2023-08-21T01:18:55;15.00;;;6.97;;
47523;SDS011;33253;42.144;25.884;2023-08-21T01:21:22;12.45;;;7.18;;
47523;SDS011;33253;42.144;25.884;2023-08-21T01:23:47;15.88;;;7.07;;
47523;SDS011;33253;42.144;25.884;2023-08-21T01:26:13;11.35;;;7.22;;
47523;SDS011;33253;42.144;25.884;2023-08-21T01:28:38;11.82;;;6.80;;
47523;SDS011;33253;42.144;25.884;2023-08-21T01:33:59;12.68;;;6.97;;
47523;SDS011;33253;42.144;25.884;2023-08-21T01:36:29;11.45;;;7.07;;
47523;SDS011;33253;42.144;25.884;2023-08-21T01:38:55;12.50;;;6.60;;
47523;SDS011;33253;42.144;25.884;2023-08-21T01:41:24;14.48;;;6.90;;
47523;SDS011;33253;42.144;25.884;2023-08-21T01:43:50;15.13;;;7.55;;
47523;SDS011;33253;42.144;25.884;2023-08-21T01:46:15;12.00;;;7.28;;
47523;SDS011;33253;42.144;25.884;2023-08-21T01:48:41;10.55;;;7.22;;
47523;SDS011;33253;42.144;25.884;2023-08-21T01:51:07;10.95;;;7.22;;
47523;SDS011;33253;42.144;25.884;2023-08-21T01:53:33;9.60;;;6.40;;
47523;SDS011;33253;42.144;25.884;2023-08-21T01:55:58;11.60;;;6.80;;
47523;SDS011;33253;42.144;25.884;2023-08-21T01:58:24;12.02;;;7.20;;
47523;SDS011;33253;42.144;25.884;2023-08-21T02:00:49;14.15;;;6.80;;
47523;SDS011;33253;42.144;25.884;2023-08-21T02:03:15;11.32;;;7.13;;
47523;SDS011;33253;42.144;25.884;2023-08-21T02:05:40;16.67;;;7.18;;
47523;SDS011;33253;42.144;25.884;2023-08-21T02:08:09;8.98;;;6.55;;
47523;SDS011;33253;42.144;25.884;2023-08-21T02:10:37;11.38;;;7.82;;
47523;SDS011;33253;42.144;25.884;2023-08-21T02:13:03;14.15;;;7.10;;
47523;SDS011;33253;42.144;25.884;2023-08-21T02:15:29;13.95;;;7.20;;
47523;SDS011;33253;42.144;25.884;2023-08-21T02:17:54;15.30;;;7.00;;
47523;SDS011;33253;42.144;25.884;2023-08-21T02:20:19;12.45;;;7.00;;
47523;SDS011;33253;42.144;25.884;2023-08-21T02:22:45;14.73;;;6.63;;
47523;SDS011;33253;42.144;25.884;2023-08-21T02:25:10;11.43;;;6.80;;
47523;SDS011;33253;42.144;25.884;2023-08-21T02:27:36;11.25;;;7.03;;
47523;SDS011;33253;42.144;25.884;2023-08-21T02:30:01;9.05;;;6.55;;
47523;SDS011;33253;42.144;25.884;2023-08-21T02:32:28;13.40;;;6.90;;
47523;SDS011;33253;42.144;25.884;2023-08-21T02:34:53;14.07;;;7.13;;
47523;SDS011;33253;42.144;25.884;2023-08-21T02:37:19;12.90;;;6.68;;
47523;SDS011;33253;42.144;25.884;2023-08-21T02:39:44;11.40;;;7.15;;
47523;SDS011;33253;42.144;25.884;2023-08-21T02:42:10;12.95;;;7.15;;
47523;SDS011;33253;42.144;25.884;2023-08-21T02:44:35;12.63;;;6.72;;
47523;SDS011;33253;42.144;25.884;2023-08-21T02:47:01;10.52;;;6.45;;
47523;SDS011;33253;42.144;25.884;2023-08-21T02:49:26;14.35;;;6.88;;
47523;SDS011;33253;42.144;25.884;2023-08-21T02:51:53;13.93;;;6.88;;
47523;SDS011;33253;42.144;25.884;2023-08-21T02:54:18;13.20;;;7.43;;
47523;SDS011;33253;42.144;25.884;2023-08-21T02:56:43;13.32;;;6.85;;
47523;SDS011;33253;42.144;25.884;2023-08-21T02:59:09;14.20;;;6.82;;
47523;SDS011;33253;42.144;25.884;2023-08-21T03:01:34;11.20;;;6.97;;
47523;SDS011;33253;42.144;25.884;2023-08-21T03:04:00;9.98;;;6.65;;
47523;SDS011;33253;42.144;25.884;2023-08-21T03:06:26;13.05;;;6.50;;
47523;SDS011;33253;42.144;25.884;2023-08-21T03:08:52;11.88;;;6.50;;
47523;SDS011;33253;42.144;25.884;2023-08-21T03:11:17;15.07;;;6.78;;
47523;SDS011;33253;42.144;25.884;2023-08-21T03:13:43;13.63;;;7.03;;
47523;SDS011;33253;42.144;25.884;2023-08-21T03:16:08;11.82;;;6.50;;
47523;SDS011;33253;42.144;25.884;2023-08-21T03:18:45;9.80;;;6.28;;
47523;SDS011;33253;42.144;25.884;2023-08-21T03:21:20;15.55;;;6.70;;
47523;SDS011;33253;42.144;25.884;2023-08-21T03:23:48;13.35;;;7.25;;
47523;SDS011;33253;42.144;25.884;2023-08-21T03:26:14;12.98;;;7.53;;
47523;SDS011;33253;42.144;25.884;2023-08-21T03:28:40;15.48;;;7.53;;
47523;SDS011;33253;42.144;25.884;2023-08-21T03:31:05;14.52;;;6.60;;
47523;SDS011;33253;42.144;25.884;2023-08-21T03:33:31;13.68;;;6.47;;
47523;SDS011;33253;42.144;25.884;2023-08-21T03:35:56;8.00;;;6.60;;
47523;SDS011;33253;42.144;25.884;2023-08-21T03:38:21;10.05;;;6.38;;
47523;SDS011;33253;42.144;25.884;2023-08-21T03:40:47;11.23;;;6.57;;
47523;SDS011;33253;42.144;25.884;2023-08-21T03:43:12;13.77;;;6.50;;
47523;SDS011;33253;42.144;25.884;2023-08-21T03:45:39;14.18;;;6.40;;
47523;SDS011;33253;42.144;25.884;2023-08-21T03:48:04;10.38;;;6.18;;
47523;SDS011;33253;42.144;25.884;2023-08-21T03:50:31;9.10;;;6.28;;
47523;SDS011;33253;42.144;25.884;2023-08-21T03:52:56;12.60;;;6.97;;
47523;SDS011;33253;42.144;25.884;2023-08-21T03:55:21;13.10;;;6.60;;
47523;SDS011;33253;42.144;25.884;2023-08-21T03:57:47;18.55;;;7.40;;
47523;SDS011;33253;42.144;25.884;2023-08-21T04:00:12;12.35;;;6.60;;
47523;SDS011;33253;42.144;25.884;2023-08-21T04:02:38;10.05;;;6.43;;
47523;SDS011;33253;42.144;25.884;2023-08-21T04:05:03;12.27;;;6.68;;
47523;SDS011;33253;42.144;25.884;2023-08-21T04:07:29;15.05;;;7.10;;
47523;SDS011;33253;42.144;25.884;2023-08-21T04:09:58;20.52;;;8.07;;
47523;SDS011;33253;42.144;25.884;2023-08-21T04:12:23;14.15;;;7.05;;
47523;SDS011;33253;42.144;25.884;2023-08-21T04:14:48;17.38;;;7.88;;
47523;SDS011;33253;42.144;25.884;2023-08-21T04:17:14;13.77;;;7.45;;
47523;SDS011;33253;42.144;25.884;2023-08-21T04:19:39;12.07;;;7.25;;
47523;SDS011;33253;42.144;25.884;2023-08-21T04:22:06;12.65;;;7.72;;
47523;SDS011;33253;42.144;25.884;2023-08-21T04:24:31;13.40;;;7.78;;
47523;SDS011;33253;42.144;25.884;2023-08-21T04:26:57;10.63;;;7.57;;
47523;SDS011;33253;42.144;25.884;2023-08-21T04:29:23;21.48;;;7.97;;
47523;SDS011;33253;42.144;25.884;2023-08-21T04:31:49;13.68;;;7.80;;
47523;SDS011;33253;42.144;25.884;2023-08-21T04:34:14;11.00;;;7.70;;
47523;SDS011;33253;42.144;25.884;2023-08-21T04:36:40;14.30;;;7.57;;
47523;SDS011;33253;42.144;25.884;2023-08-21T04:39:06;10.15;;;8.05;;
47523;SDS011;33253;42.144;25.884;2023-08-21T04:41:31;13.65;;;7.80;;
47523;SDS011;33253;42.144;25.884;2023-08-21T04:43:56;18.20;;;8.70;;
47523;SDS011;33253;42.144;25.884;2023-08-21T04:46:22;13.95;;;7.10;;
47523;SDS011;33253;42.144;25.884;2023-08-21T04:48:47;13.57;;;7.45;;
47523;SDS011;33253;42.144;25.884;2023-08-21T04:51:15;16.25;;;7.72;;
47523;SDS011;33253;42.144;25.884;2023-08-21T04:53:41;12.93;;;7.60;;
47523;SDS011;33253;42.144;25.884;2023-08-21T04:56:07;12.73;;;7.25;;
47523;SDS011;33253;42.144;25.884;2023-08-21T04:58:32;14.15;;;7.70;;
47523;SDS011;33253;42.144;25.884;2023-08-21T05:00:58;18.08;;;7.93;;
47523;SDS011;33253;42.144;25.884;2023-08-21T05:03:24;14.57;;;7.43;;
47523;SDS011;33253;42.144;25.884;2023-08-21T05:05:55;15.88;;;7.65;;
47523;SDS011;33253;42.144;25.884;2023-08-21T05:08:24;37.63;;;8.80;;
47523;SDS011;33253;42.144;25.884;2023-08-21T05:10:58;17.27;;;7.45;;
47523;SDS011;33253;42.144;25.884;2023-08-21T05:13:25;11.88;;;7.03;;
47523;SDS011;33253;42.144;25.884;2023-08-21T05:15:54;17.45;;;7.20;;
47523;SDS011;33253;42.144;25.884;2023-08-21T05:18:21;12.73;;;6.80;;
47523;SDS011;33253;42.144;25.884;2023-08-21T05:20:49;11.73;;;8.00;;
47523;SDS011;33253;42.144;25.884;2023-08-21T05:23:15;12.70;;;8.18;;
47523;SDS011;33253;42.144;25.884;2023-08-21T06:31:09;13.57;;;7.20;;
47523;SDS011;33253;42.144;25.884;2023-08-21T06:33:34;10.85;;;6.18;;
47523;SDS011;33253;42.144;25.884;2023-08-21T06:35:59;11.63;;;6.57;;
47523;SDS011;33253;42.144;25.884;2023-08-21T06:38:26;14.52;;;6.75;;
47523;SDS011;33253;42.144;25.884;2023-08-21T06:40:52;15.93;;;7.07;;
47523;SDS011;33253;42.144;25.884;2023-08-21T06:43:17;14.00;;;6.63;;
47523;SDS011;33253;42.144;25.884;2023-08-21T06:45:42;11.25;;;6.45;;
47523;SDS011;33253;42.144;25.884;2023-08-21T06:48:08;19.65;;;7.18;;
47523;SDS011;33253;42.144;25.884;2023-08-21T06:50:33;20.20;;;16.98;;
47523;SDS011;33253;42.144;25.884;2023-08-21T06:53:00;10.70;;;6.63;;
47523;SDS011;33253;42.144;25.884;2023-08-21T06:55:26;8.98;;;5.80;;
47523;SDS011;33253;42.144;25.884;2023-08-21T06:57:51;10.60;;;6.10;;
47523;SDS011;33253;42.144;25.884;2023-08-21T07:00:17;8.35;;;5.85;;
47523;SDS011;33253;42.144;25.884;2023-08-21T07:02:43;10.05;;;5.57;;
47523;SDS011;33253;42.144;25.884;2023-08-21T07:05:08;9.93;;;4.88;;
47523;SDS011;33253;42.144;25.884;2023-08-21T07:07:34;9.32;;;5.57;;
47523;SDS011;33253;42.144;25.884;2023-08-21T07:09:59;15.38;;;5.80;;
47523;SDS011;33253;42.144;25.884;2023-08-21T07:12:25;9.57;;;5.65;;
47523;SDS011;33253;42.144;25.884;2023-08-21T07:14:50;12.30;;;5.75;;
47523;SDS011;33253;42.144;25.884;2023-08-21T07:17:16;12.38;;;5.75;;
47523;SDS011;33253;42.144;25.884;2023-08-21T07:19:41;9.23;;;6.45;;
47523;SDS011;33253;42.144;25.884;2023-08-21T07:22:07;10.10;;;5.90;;
47523;SDS011;33253;42.144;25.884;2023-08-21T07:24:33;10.95;;;6.00;;
47523;SDS011;33253;42.144;25.884;2023-08-21T07:26:58;11.80;;;5.88;;
47523;SDS011;33253;42.144;25.884;2023-08-21T07:29:24;9.27;;;5.32;;
47523;SDS011;33253;42.144;25.884;2023-08-21T07:31:50;15.25;;;5.65;;
47523;SDS011;33253;42.144;25.884;2023-08-21T07:34:17;7.80;;;5.32;;
47523;SDS011;33253;42.144;25.884;2023-08-21T07:36:43;9.88;;;5.60;;
47523;SDS011;33253;42.144;25.884;2023-08-21T07:39:08;10.55;;;5.78;;
47523;SDS011;33253;42.144;25.884;2023-08-21T07:41:34;8.35;;;6.18;;
47523;SDS011;33253;42.144;25.884;2023-08-21T07:44:02;10.77;;;5.25;;
47523;SDS011;33253;42.144;25.884;2023-08-21T07:46:28;6.80;;;5.13;;
47523;SDS011;33253;42.144;25.884;2023-08-21T07:48:55;9.20;;;5.10;;
47523;SDS011;33253;42.144;25.884;2023-08-21T07:51:20;13.43;;;5.35;;
47523;SDS011;33253;42.144;25.884;2023-08-21T07:53:46;32.83;;;5.95;;
47523;SDS011;33253;42.144;25.884;2023-08-21T07:56:11;11.57;;;5.32;;
47523;SDS011;33253;42.144;25.884;2023-08-21T07:58:37;16.17;;;5.07;;
47523;SDS011;33253;42.144;25.884;2023-08-21T08:01:03;8.68;;;4.82;;
47523;SDS011;33253;42.144;25.884;2023-08-21T08:03:30;21.02;;;5.60;;
47523;SDS011;33253;42.144;25.884;2023-08-21T08:05:56;9.55;;;4.70;;
47523;SDS011;33253;42.144;25.884;2023-08-21T08:08:21;10.18;;;5.85;;
47523;SDS011;33253;42.144;25.884;2023-08-21T08:10:47;14.27;;;5.50;;
47523;SDS011;33253;42.144;25.884;2023-08-21T08:13:12;14.23;;;5.88;;
47523;SDS011;33253;42.144;25.884;2023-08-21T08:15:38;16.85;;;6.47;;
47523;SDS011;33253;42.144;25.884;2023-08-21T08:18:04;18.70;;;6.07;;
47523;SDS011;33253;42.144;25.884;2023-08-21T08:20:32;24.55;;;6.60;;
47523;SDS011;33253;42.144;25.884;2023-08-21T08:22:58;22.60;;;6.72;;
47523;SDS011;33253;42.144;25.884;2023-08-21T08:25:25;16.42;;;6.15;;
47523;SDS011;33253;42.144;25.884;2023-08-21T08:27:51;23.55;;;6.50;;
47523;SDS011;33253;42.144;25.884;2023-08-21T08:30:17;10.90;;;5.00;;
47523;SDS011;33253;42.144;25.884;2023-08-21T08:32:42;10.30;;;4.75;;
47523;SDS011;33253;42.144;25.884;2023-08-21T08:35:10;16.05;;;5.43;;
47523;SDS011;33253;42.144;25.884;2023-08-21T08:40:06;17.05;;;5.55;;
47523;SDS011;33253;42.144;25.884;2023-08-21T08:42:34;24.85;;;7.82;;
47523;SDS011;33253;42.144;25.884;2023-08-21T08:45:02;13.00;;;8.13;;
47523;SDS011;33253;42.144;25.884;2023-08-21T08:47:33;16.52;;;5.35;;
47523;SDS011;33253;42.144;25.884;2023-08-21T08:50:03;11.75;;;4.47;;
47523;SDS011;33253;42.144;25.884;2023-08-21T08:52:31;17.77;;;5.07;;
47523;SDS011;33253;42.144;25.884;2023-08-21T08:55:00;16.23;;;6.00;;
47523;SDS011;33253;42.144;25.884;2023-08-21T08:57:27;14.98;;;5.45;;
47523;SDS011;33253;42.144;25.884;2023-08-21T08:59:53;14.13;;;6.20;;
47523;SDS011;33253;42.144;25.884;2023-08-21T09:02:18;16.10;;;5.53;;
47523;SDS011;33253;42.144;25.884;2023-08-21T09:04:44;13.30;;;5.00;;
47523;SDS011;33253;42.144;25.884;2023-08-21T09:07:09;6.97;;;3.97;;
47523;SDS011;33253;42.144;25.884;2023-08-21T09:09:46;16.75;;;4.78;;
47523;SDS011;33253;42.144;25.884;2023-08-21T09:12:14;14.50;;;4.87;;
47523;SDS011;33253;42.144;25.884;2023-08-21T09:14:42;9.05;;;4.53;;
47523;SDS011;33253;42.144;25.884;2023-08-21T09:17:08;10.85;;;3.83;;
47523;SDS011;33253;42.144;25.884;2023-08-21T09:19:34;11.73;;;4.05;;
47523;SDS011;33253;42.144;25.884;2023-08-21T09:22:18;13.02;;;3.75;;
47523;SDS011;33253;42.144;25.884;2023-08-21T09:27:36;10.88;;;3.40;;
47523;SDS011;33253;42.144;25.884;2023-08-21T09:30:04;7.65;;;2.92;;
47523;SDS011;33253;42.144;25.884;2023-08-21T09:32:30;7.40;;;3.40;;
47523;SDS011;33253;42.144;25.884;2023-08-21T09:34:56;9.02;;;3.35;;
47523;SDS011;33253;42.144;25.884;2023-08-21T09:37:23;5.97;;;2.60;;
47523;SDS011;33253;42.144;25.884;2023-08-21T09:39:54;11.15;;;3.42;;
47523;SDS011;33253;42.144;25.884;2023-08-21T09:42:26;14.63;;;3.10;;
47523;SDS011;33253;42.144;25.884;2023-08-21T09:44:51;13.75;;;3.75;;
47523;SDS011;33253;42.144;25.884;2023-08-21T09:47:17;16.20;;;4.05;;
47523;SDS011;33253;42.144;25.884;2023-08-21T09:49:44;15.98;;;3.55;;
47523;SDS011;33253;42.144;25.884;2023-08-21T09:52:10;8.73;;;3.50;;
47523;SDS011;33253;42.144;25.884;2023-08-21T09:54:37;11.40;;;3.58;;
47523;SDS011;33253;42.144;25.884;2023-08-21T09:57:04;12.52;;;3.30;;
47523;SDS011;33253;42.144;25.884;2023-08-21T09:59:30;9.30;;;3.00;;
47523;SDS011;33253;42.144;25.884;2023-08-21T10:01:58;10.02;;;2.58;;
47523;SDS011;33253;42.144;25.884;2023-08-21T10:04:27;15.07;;;4.50;;
47523;SDS011;33253;42.144;25.884;2023-08-21T10:06:55;19.75;;;3.85;;
47523;SDS011;33253;42.144;25.884;2023-08-21T10:09:24;6.88;;;2.75;;
47523;SDS011;33253;42.144;25.884;2023-08-21T10:11:54;11.85;;;3.15;;
47523;SDS011;33253;42.144;25.884;2023-08-21T10:14:21;6.97;;;2.58;;
47523;SDS011;33253;42.144;25.884;2023-08-21T10:16:49;9.73;;;3.20;;
47523;SDS011;33253;42.144;25.884;2023-08-21T10:19:19;15.82;;;3.92;;
47523;SDS011;33253;42.144;25.884;2023-08-21T10:21:48;11.55;;;3.13;;
47523;SDS011;33253;42.144;25.884;2023-08-21T10:26:51;11.00;;;2.92;;
47523;SDS011;33253;42.144;25.884;2023-08-21T10:29:16;7.28;;;3.25;;
47523;SDS011;33253;42.144;25.884;2023-08-21T10:31:42;10.10;;;2.70;;
47523;SDS011;33253;42.144;25.884;2023-08-21T10:34:09;6.43;;;3.05;;
47523;SDS011;33253;42.144;25.884;2023-08-21T10:39:19;13.02;;;2.83;;
47523;SDS011;33253;42.144;25.884;2023-08-21T10:41:56;9.93;;;3.03;;
47523;SDS011;33253;42.144;25.884;2023-08-21T10:49:44;12.45;;;4.57;;
47523;SDS011;33253;42.144;25.884;2023-08-21T10:52:28;18.75;;;5.03;;
47523;SDS011;33253;42.144;25.884;2023-08-21T10:54:57;15.40;;;4.05;;
47523;SDS011;33253;42.144;25.884;2023-08-21T10:57:24;7.88;;;3.53;;
47523;SDS011;33253;42.144;25.884;2023-08-21T11:02:25;15.82;;;4.95;;
47523;SDS011;33253;42.144;25.884;2023-08-21T11:04:54;10.23;;;3.90;;
47523;SDS011;33253;42.144;25.884;2023-08-21T11:07:21;19.25;;;5.75;;
47523;SDS011;33253;42.144;25.884;2023-08-21T11:09:48;13.25;;;5.13;;
47523;SDS011;33253;42.144;25.884;2023-08-21T11:12:14;24.35;;;4.85;;
47523;SDS011;33253;42.144;25.884;2023-08-21T11:14:41;15.23;;;4.93;;
47523;SDS011;33253;42.144;25.884;2023-08-21T11:17:09;11.43;;;4.00;;
47523;SDS011;33253;42.144;25.884;2023-08-21T11:19:36;5.23;;;3.10;;
47523;SDS011;33253;42.144;25.884;2023-08-21T11:22:02;7.45;;;2.80;;
47523;SDS011;33253;42.144;25.884;2023-08-21T11:24:50;14.30;;;5.50;;
47523;SDS011;33253;42.144;25.884;2023-08-21T11:27:18;20.25;;;5.15;;
47523;SDS011;33253;42.144;25.884;2023-08-21T11:29:45;15.13;;;5.38;;
47523;SDS011;33253;42.144;25.884;2023-08-21T11:34:53;12.82;;;4.32;;
47523;SDS011;33253;42.144;25.884;2023-08-21T11:37:27;10.35;;;3.70;;
47523;SDS011;33253;42.144;25.884;2023-08-21T11:39:53;8.00;;;4.15;;
47523;SDS011;33253;42.144;25.884;2023-08-21T11:42:33;24.90;;;4.63;;
47523;SDS011;33253;42.144;25.884;2023-08-21T11:44:59;16.55;;;5.45;;
47523;SDS011;33253;42.144;25.884;2023-08-21T11:47:33;10.00;;;4.65;;
47523;SDS011;33253;42.144;25.884;2023-08-21T11:50:06;10.82;;;4.88;;
47523;SDS011;33253;42.144;25.884;2023-08-21T11:52:34;9.82;;;4.35;;
47523;SDS011;33253;42.144;25.884;2023-08-21T11:55:06;10.43;;;4.72;;
47523;SDS011;33253;42.144;25.884;2023-08-21T11:57:34;6.63;;;4.45;;
47523;SDS011;33253;42.144;25.884;2023-08-21T11:59:59;10.02;;;4.97;;
47523;SDS011;33253;42.144;25.884;2023-08-21T12:02:26;10.93;;;5.60;;
47523;SDS011;33253;42.144;25.884;2023-08-21T12:04:53;11.13;;;5.60;;
47523;SDS011;33253;42.144;25.884;2023-08-21T12:07:20;17.15;;;7.30;;
47523;SDS011;33253;42.144;25.884;2023-08-21T12:09:46;13.35;;;6.45;;
47523;SDS011;33253;42.144;25.884;2023-08-21T12:12:13;11.77;;;6.45;;
47523;SDS011;33253;42.144;25.884;2023-08-21T12:14:39;10.65;;;6.88;;
47523;SDS011;33253;42.144;25.884;2023-08-21T12:17:05;12.20;;;7.28;;
47523;SDS011;33253;42.144;25.884;2023-08-21T12:19:31;19.83;;;9.60;;
47523;SDS011;33253;42.144;25.884;2023-08-21T12:21:56;20.95;;;8.05;;
47523;SDS011;33253;42.144;25.884;2023-08-21T12:24:23;19.13;;;9.63;;
47523;SDS011;33253;42.144;25.884;2023-08-21T12:26:50;18.15;;;10.05;;
47523;SDS011;33253;42.144;25.884;2023-08-21T12:29:16;17.48;;;9.80;;
47523;SDS011;33253;42.144;25.884;2023-08-21T12:31:41;14.38;;;10.48;;
47523;SDS011;33253;42.144;25.884;2023-08-21T12:34:07;17.02;;;11.35;;
47523;SDS011;33253;42.144;25.884;2023-08-21T12:36:35;28.52;;;23.25;;
47523;SDS011;33253;42.144;25.884;2023-08-21T12:39:05;17.85;;;13.93;;
47523;SDS011;33253;42.144;25.884;2023-08-21T12:41:31;16.85;;;12.30;;
47523;SDS011;33253;42.144;25.884;2023-08-21T12:46:25;16.80;;;10.18;;
47523;SDS011;33253;42.144;25.884;2023-08-21T12:48:52;17.90;;;8.48;;
47523;SDS011;33253;42.144;25.884;2023-08-21T12:51:18;12.70;;;8.75;;
47523;SDS011;33253;42.144;25.884;2023-08-21T12:53:44;19.13;;;8.90;;
47523;SDS011;33253;42.144;25.884;2023-08-21T12:56:09;27.75;;;12.55;;
47523;SDS011;33253;42.144;25.884;2023-08-21T12:58:35;16.55;;;10.15;;
47523;SDS011;33253;42.144;25.884;2023-08-21T13:01:00;12.68;;;7.93;;
47523;SDS011;33253;42.144;25.884;2023-08-21T13:03:26;12.82;;;8.07;;
47523;SDS011;33253;42.144;25.884;2023-08-21T13:05:51;14.25;;;8.00;;
47523;SDS011;33253;42.144;25.884;2023-08-21T13:08:17;10.65;;;8.98;;
47523;SDS011;33253;42.144;25.884;2023-08-21T13:10:42;11.23;;;9.05;;
47523;SDS011;33253;42.144;25.884;2023-08-21T13:13:08;14.90;;;9.70;;
47523;SDS011;33253;42.144;25.884;2023-08-21T13:15:33;22.30;;;10.02;;
47523;SDS011;33253;42.144;25.884;2023-08-21T13:17:59;15.25;;;7.03;;
47523;SDS011;33253;42.144;25.884;2023-08-21T13:20:24;13.95;;;7.43;;
47523;SDS011;33253;42.144;25.884;2023-08-21T13:22:51;13.55;;;8.23;;
47523;SDS011;33253;42.144;25.884;2023-08-21T13:25:21;16.02;;;9.32;;
47523;SDS011;33253;42.144;25.884;2023-08-21T13:27:50;14.80;;;8.10;;
47523;SDS011;33253;42.144;25.884;2023-08-21T13:30:16;13.10;;;8.23;;
47523;SDS011;33253;42.144;25.884;2023-08-21T13:32:42;17.92;;;8.23;;
47523;SDS011;33253;42.144;25.884;2023-08-21T13:35:09;25.48;;;8.75;;
47523;SDS011;33253;42.144;25.884;2023-08-21T13:37:35;21.65;;;9.02;;
47523;SDS011;33253;42.144;25.884;2023-08-21T13:40:02;13.52;;;8.52;;
47523;SDS011;33253;42.144;25.884;2023-08-21T13:42:38;11.57;;;8.32;;
47523;SDS011;33253;42.144;25.884;2023-08-21T13:45:08;19.25;;;9.00;;
47523;SDS011;33253;42.144;25.884;2023-08-21T13:47:41;24.05;;;8.55;;
47523;SDS011;33253;42.144;25.884;2023-08-21T13:50:09;12.55;;;6.18;;
47523;SDS011;33253;42.144;25.884;2023-08-21T13:52:35;10.13;;;6.53;;
47523;SDS011;33253;42.144;25.884;2023-08-21T13:55:02;10.52;;;6.90;;
47523;SDS011;33253;42.144;25.884;2023-08-21T13:57:28;14.13;;;7.22;;
47523;SDS011;33253;42.144;25.884;2023-08-21T13:59:54;15.38;;;7.43;;
47523;SDS011;33253;42.144;25.884;2023-08-21T14:02:19;12.18;;;7.70;;
47523;SDS011;33253;42.144;25.884;2023-08-21T14:04:49;14.30;;;7.63;;
47523;SDS011;33253;42.144;25.884;2023-08-21T14:07:15;11.88;;;8.10;;
47523;SDS011;33253;42.144;25.884;2023-08-21T14:09:40;11.57;;;8.63;;
47523;SDS011;33253;42.144;25.884;2023-08-21T14:12:06;13.63;;;8.05;;
47523;SDS011;33253;42.144;25.884;2023-08-21T14:14:35;15.52;;;8.75;;
47523;SDS011;33253;42.144;25.884;2023-08-21T14:17:02;13.52;;;8.65;;
47523;SDS011;33253;42.144;25.884;2023-08-21T14:19:28;11.45;;;7.78;;
47523;SDS011;33253;42.144;25.884;2023-08-21T14:21:54;14.23;;;8.90;;
47523;SDS011;33253;42.144;25.884;2023-08-21T14:24:20;12.88;;;7.45;;
47523;SDS011;33253;42.144;25.884;2023-08-21T14:26:46;20.55;;;8.68;;
47523;SDS011;33253;42.144;25.884;2023-08-21T14:29:12;9.65;;;7.03;;
47523;SDS011;33253;42.144;25.884;2023-08-21T14:31:38;16.30;;;7.95;;
47523;SDS011;33253;42.144;25.884;2023-08-21T14:34:04;13.20;;;7.90;;
47523;SDS011;33253;42.144;25.884;2023-08-21T14:36:29;12.23;;;7.65;;
47523;SDS011;33253;42.144;25.884;2023-08-21T14:38:55;12.30;;;7.35;;
47523;SDS011;33253;42.144;25.884;2023-08-21T14:41:20;13.75;;;7.00;;
47523;SDS011;33253;42.144;25.884;2023-08-21T14:43:47;10.32;;;7.20;;
47523;SDS011;33253;42.144;25.884;2023-08-21T14:46:35;11.38;;;6.75;;
47523;SDS011;33253;42.144;25.884;2023-08-21T14:49:01;13.38;;;7.35;;
47523;SDS011;33253;42.144;25.884;2023-08-21T14:51:27;11.18;;;7.10;;
47523;SDS011;33253;42.144;25.884;2023-08-21T14:53:52;11.70;;;7.65;;
47523;SDS011;33253;42.144;25.884;2023-08-21T14:56:18;11.70;;;7.72;;
47523;SDS011;33253;42.144;25.884;2023-08-21T14:58:45;11.20;;;7.10;;
47523;SDS011;33253;42.144;25.884;2023-08-21T15:01:10;11.57;;;6.75;;
47523;SDS011;33253;42.144;25.884;2023-08-21T15:03:36;14.02;;;6.22;;
47523;SDS011;33253;42.144;25.884;2023-08-21T15:06:01;15.57;;;6.93;;
47523;SDS011;33253;42.144;25.884;2023-08-21T15:08:27;13.63;;;6.85;;
47523;SDS011;33253;42.144;25.884;2023-08-21T15:10:53;8.65;;;6.53;;
47523;SDS011;33253;42.144;25.884;2023-08-21T15:13:19;11.88;;;6.50;;
47523;SDS011;33253;42.144;25.884;2023-08-21T15:15:45;9.10;;;6.22;;
47523;SDS011;33253;42.144;25.884;2023-08-21T15:18:10;11.55;;;6.53;;
47523;SDS011;33253;42.144;25.884;2023-08-21T15:20:36;10.55;;;6.15;;
47523;SDS011;33253;42.144;25.884;2023-08-21T15:23:01;17.15;;;6.50;;
47523;SDS011;33253;42.144;25.884;2023-08-21T15:25:27;21.80;;;7.55;;
47523;SDS011;33253;42.144;25.884;2023-08-21T15:27:54;25.17;;;7.25;;
47523;SDS011;33253;42.144;25.884;2023-08-21T15:30:19;16.33;;;5.90;;
47523;SDS011;33253;42.144;25.884;2023-08-21T15:32:45;17.23;;;5.47;;
47523;SDS011;33253;42.144;25.884;2023-08-21T15:35:12;17.75;;;6.07;;
47523;SDS011;33253;42.144;25.884;2023-08-21T15:37:38;28.95;;;6.80;;
47523;SDS011;33253;42.144;25.884;2023-08-21T15:40:03;31.75;;;6.38;;
47523;SDS011;33253;42.144;25.884;2023-08-21T15:42:31;14.10;;;5.55;;
47523;SDS011;33253;42.144;25.884;2023-08-21T15:44:57;11.98;;;5.82;;
47523;SDS011;33253;42.144;25.884;2023-08-21T15:47:23;9.15;;;5.50;;
47523;SDS011;33253;42.144;25.884;2023-08-21T15:49:49;7.43;;;4.72;;
47523;SDS011;33253;42.144;25.884;2023-08-21T15:52:15;9.88;;;4.57;;
47523;SDS011;33253;42.144;25.884;2023-08-21T15:54:42;9.18;;;4.75;;